Terminal Aerodrome Forecast
Issued by NWS

Home | Current Version | Previous Version | Text Only | Print | Product List | Glossary On
Versions: 1 2 3 4 5 6 7 8 9 10 11 12 13 14 15 16 17 18 19 20 21
000
FTUS45 KBOU 171936 AAA
TAFBJC
TAF AMD
KBJC 171936Z 1720/1818 VRB06KT P6SM SCT070 BKN120
     FM172100 24012G20KT P6SM SCT080 BKN130
     FM172300 31012KT P6SM SCT070 BKN100
     FM180200 02010G20KT P6SM VCSH SCT030 BKN070 PROB30 1804/1809
      -SHRA BKN025
     FM180900 03013KT 5SM BR VCSH OVC008
     FM181600 02008KT P6SM OVC012=

USA.gov is the U.S. government's official web portal to all federal, state and local government web resources and services.